createdAt,value
2018-07-26T00:05:05.214Z,9
2018-07-26T00:15:05.184Z,10
2018-07-26T00:25:05.112Z,11
2018-07-26T00:35:05.253Z,11
2018-07-26T00:45:05.154Z,11
2018-07-26T00:55:05.176Z,11
2018-07-26T01:05:05.196Z,11
2018-07-26T01:15:05.148Z,11
2018-07-26T01:25:05.205Z,10
2018-07-26T01:35:05.176Z,11
2018-07-26T01:45:05.262Z,13
2018-07-26T01:55:05.170Z,9
2018-07-26T02:05:05.102Z,10
2018-07-26T02:15:05.274Z,12
2018-07-26T02:25:05.137Z,10
2018-07-26T02:35:05.192Z,12
2018-07-26T02:45:05.189Z,11
2018-07-26T02:55:05.203Z,13
2018-07-26T03:05:05.257Z,12
2018-07-26T03:15:05.542Z,12
2018-07-26T03:25:05.139Z,13
2018-07-26T03:35:05.222Z,13
2018-07-26T03:45:05.159Z,13
2018-07-26T03:55:05.244Z,14
2018-07-26T04:05:05.200Z,12
2018-07-26T04:15:05.281Z,12
2018-07-26T04:25:05.268Z,12
2018-07-26T04:35:05.241Z,14
2018-07-26T04:45:05.229Z,13
2018-07-26T04:55:05.228Z,12
2018-07-26T05:05:05.163Z,13
2018-07-26T05:15:05.247Z,13
2018-07-26T05:25:05.198Z,13
2018-07-26T05:35:05.262Z,12
2018-07-26T05:45:05.297Z,12
2018-07-26T05:55:05.220Z,13
2018-07-26T06:05:05.254Z,17
2018-07-26T06:15:05.123Z,15
2018-07-26T06:25:05.269Z,14
2018-07-26T06:35:05.205Z,14
2018-07-26T06:45:05.173Z,13
2018-07-26T06:55:05.222Z,15
2018-07-26T07:05:05.254Z,15
2018-07-26T07:15:05.312Z,10
2018-07-26T07:25:05.214Z,9
2018-07-26T07:35:05.243Z,9
2018-07-26T07:45:05.288Z,11
2018-07-26T07:55:05.256Z,8
2018-07-26T08:05:05.280Z,9
2018-07-26T08:15:05.258Z,6
2018-07-26T08:25:05.410Z,6
2018-07-26T08:35:05.385Z,8
2018-07-26T08:45:05.291Z,6
2018-07-26T08:55:05.287Z,5
2018-07-26T09:05:05.302Z,5
2018-07-26T09:15:05.295Z,5
2018-07-26T09:25:05.406Z,3
2018-07-26T09:35:05.260Z,3
2018-07-26T09:45:05.375Z,3
2018-07-26T09:55:05.349Z,5
2018-07-26T10:05:05.399Z,4
2018-07-26T10:15:05.374Z,3
2018-07-26T10:25:05.399Z,3
2018-07-26T10:35:05.331Z,2
2018-07-26T10:45:05.322Z,3
2018-07-26T10:55:05.323Z,4
2018-07-26T11:05:05.294Z,3
2018-07-26T11:15:05.418Z,4
2018-07-26T11:25:05.336Z,3
2018-07-26T11:35:05.329Z,3
2018-07-26T11:45:05.353Z,6
2018-07-26T11:55:05.332Z,4
2018-07-26T12:05:05.462Z,3
2018-07-26T12:15:05.325Z,3
2018-07-26T12:25:05.382Z,4
2018-07-26T12:35:05.332Z,4
2018-07-26T12:45:05.302Z,3
2018-07-26T12:55:05.357Z,3
2018-07-26T13:05:05.412Z,2
2018-07-26T13:15:05.366Z,3
2018-07-26T13:25:05.306Z,5
2018-07-26T13:35:05.294Z,3
2018-07-26T13:45:05.387Z,3
2018-07-26T13:55:05.282Z,3
2018-07-26T14:05:05.384Z,5
2018-07-26T14:15:05.372Z,4
2018-07-26T14:25:05.433Z,4
2018-07-26T14:35:05.336Z,3
2018-07-26T14:45:05.323Z,3
2018-07-26T14:55:05.441Z,3
2018-07-26T15:05:06.228Z,3
2018-07-26T15:15:05.640Z,4
2018-07-26T15:25:06.369Z,3
2018-07-26T15:35:06.005Z,3
2018-07-26T15:45:16.544Z,5
2018-07-26T16:01:33.611Z,4
2018-07-26T16:05:05.704Z,3
2018-07-26T16:15:20.046Z,5
2018-07-26T16:25:05.518Z,3
2018-07-26T16:35:06.168Z,3
2018-07-26T16:45:05.566Z,4
2018-07-26T16:55:05.391Z,3
2018-07-26T17:05:05.358Z,4
2018-07-26T17:15:05.563Z,3
2018-07-26T17:25:05.467Z,5
2018-07-26T17:35:05.636Z,6
2018-07-26T17:45:05.540Z,11
2018-07-26T17:55:06.747Z,4
2018-07-26T18:05:05.500Z,7
2018-07-26T18:15:05.374Z,7
2018-07-26T18:25:05.987Z,30
2018-07-26T18:35:05.387Z,54
2018-07-26T18:45:05.468Z,30
2018-07-26T18:55:09.298Z,99
2018-07-26T19:05:05.460Z,37
2018-07-26T19:15:05.555Z,75
2018-07-26T19:25:05.448Z,63
2018-07-26T19:35:05.533Z,18
2018-07-26T19:45:05.513Z,16
2018-07-26T19:55:05.553Z,25
2018-07-26T20:05:05.493Z,17
2018-07-26T20:15:05.474Z,5
2018-07-26T20:25:06.454Z,6
2018-07-26T20:35:06.554Z,5
2018-07-26T20:45:09.971Z,8
2018-07-26T20:55:06.438Z,5
2018-07-26T21:05:05.560Z,5
2018-07-26T21:15:06.583Z,8
2018-07-26T21:25:06.750Z,5
2018-07-26T21:35:05.537Z,4
2018-07-26T21:45:05.680Z,5
2018-07-26T21:55:05.647Z,6
2018-07-26T22:05:05.533Z,5
2018-07-26T22:15:07.273Z,4
2018-07-26T22:25:05.586Z,5
2018-07-26T22:35:06.115Z,7
2018-07-26T22:45:06.472Z,5
2018-07-26T22:55:05.888Z,7
2018-07-26T23:05:19.324Z,5
2018-07-26T23:15:20.069Z,7
2018-07-26T23:25:06.199Z,7
2018-07-26T23:35:05.657Z,5
2018-07-26T23:45:06.603Z,5
2018-07-26T23:55:05.616Z,5
